createdAt,value
2018-07-06T00:02:38.531Z,4.40
2018-07-06T00:05:18.274Z,1.87
2018-07-06T00:07:57.946Z,4.40
2018-07-06T00:10:37.610Z,2.17
2018-07-06T00:13:17.275Z,2.90
2018-07-06T00:15:56.902Z,2.37
2018-07-06T00:18:36.703Z,3.60
2018-07-06T00:21:16.577Z,6.40
2018-07-06T00:23:56.266Z,2.30
2018-07-06T00:26:35.919Z,2.40
2018-07-06T00:29:15.579Z,4.00
2018-07-06T00:31:55.235Z,1.90
2018-07-06T00:34:34.842Z,11.53
2018-07-06T00:37:14.528Z,2.37
2018-07-06T00:39:54.171Z,6.37
2018-07-06T00:42:34.367Z,4.63
2018-07-06T00:45:14.111Z,2.23
2018-07-06T00:47:53.818Z,3.63
2018-07-06T00:50:33.750Z,2.30
2018-07-06T00:53:13.534Z,1.77
2018-07-06T00:55:53.098Z,2.43
2018-07-06T00:58:32.990Z,6.23
2018-07-06T01:01:12.711Z,1.87
2018-07-06T01:03:52.371Z,2.63
2018-07-06T01:06:31.986Z,2.07
2018-07-06T01:09:11.660Z,2.13
2018-07-06T01:11:51.467Z,1.90
2018-07-06T01:14:31.286Z,3.83
2018-07-06T01:17:16.059Z,1.93
2018-07-06T01:19:56.410Z,1.73
2018-07-06T01:22:36.142Z,1.70
2018-07-06T01:25:15.860Z,3.50
2018-07-06T01:27:55.697Z,4.80
2018-07-06T01:30:35.461Z,1.53
2018-07-06T01:33:15.286Z,2.73
2018-07-06T01:35:54.946Z,1.87
2018-07-06T01:38:34.471Z,3.13
2018-07-06T01:41:14.154Z,2.03
2018-07-06T01:43:53.759Z,1.83
2018-07-06T01:46:33.398Z,2.00
2018-07-06T01:49:13.067Z,3.27
2018-07-06T01:51:52.846Z,1.80
2018-07-06T01:54:32.627Z,5.43
2018-07-06T01:57:12.331Z,1.93
2018-07-06T01:59:52.067Z,1.80
2018-07-06T02:02:31.693Z,1.87
2018-07-06T02:05:11.314Z,1.67
2018-07-06T02:07:51.074Z,7.43
2018-07-06T02:10:30.722Z,2.33
2018-07-06T02:13:10.371Z,9.30
2018-07-06T02:15:50.011Z,1.50
2018-07-06T02:18:29.555Z,5.07
2018-07-06T02:21:09.192Z,1.30
2018-07-06T02:23:48.743Z,1.60
2018-07-06T02:26:29.402Z,8.53
2018-07-06T02:29:09.221Z,4.20
2018-07-06T02:31:48.839Z,1.47
2018-07-06T02:34:28.504Z,1.80
2018-07-06T02:37:08.179Z,7.50
2018-07-06T02:39:47.895Z,1.47
2018-07-06T02:42:27.783Z,1.63
2018-07-06T02:45:07.452Z,3.40
2018-07-06T02:47:47.153Z,2.27
2018-07-06T02:50:26.826Z,3.13
2018-07-06T02:53:06.627Z,1.53
2018-07-06T02:55:46.262Z,3.33
2018-07-06T02:58:26.159Z,3.60
2018-07-06T03:01:05.830Z,1.70
2018-07-06T03:03:45.495Z,3.10
2018-07-06T03:06:25.518Z,1.60
2018-07-06T03:09:05.183Z,2.23
2018-07-06T03:11:44.842Z,2.63
2018-07-06T03:14:24.585Z,1.70
2018-07-06T03:17:04.403Z,1.87
2018-07-06T03:19:44.217Z,2.30
2018-07-06T03:22:24.106Z,2.07
2018-07-06T03:25:03.670Z,2.07
2018-07-06T03:27:43.290Z,1.97
2018-07-06T03:30:23.211Z,2.60
2018-07-06T03:33:03.019Z,1.73
2018-07-06T03:35:42.839Z,2.00
2018-07-06T03:38:22.542Z,7.20
2018-07-06T03:41:02.183Z,1.70
2018-07-06T03:43:41.821Z,1.77
2018-07-06T03:46:21.635Z,1.77
2018-07-06T03:49:01.435Z,1.47
2018-07-06T03:51:41.086Z,1.63
2018-07-06T03:54:20.883Z,2.40
2018-07-06T03:57:00.683Z,1.57
2018-07-06T03:59:40.402Z,1.97
2018-07-06T04:02:20.078Z,2.17
2018-07-06T04:04:59.630Z,2.03
2018-07-06T04:07:39.397Z,1.87
2018-07-06T04:10:19.070Z,2.90
2018-07-06T04:12:58.847Z,2.13
2018-07-06T04:15:38.454Z,2.90
2018-07-06T04:18:18.058Z,6.63
2018-07-06T04:20:57.922Z,2.53
2018-07-06T04:23:37.834Z,2.97
2018-07-06T04:26:17.451Z,2.60
2018-07-06T04:28:57.135Z,3.33
2018-07-06T04:31:36.934Z,4.60
2018-07-06T04:34:16.619Z,3.10
2018-07-06T04:36:56.343Z,2.50
2018-07-06T04:39:36.039Z,2.70
2018-07-06T04:42:15.654Z,2.70
2018-07-06T04:44:55.236Z,2.77
2018-07-06T04:47:34.891Z,2.53
2018-07-06T04:50:14.546Z,3.33
2018-07-06T04:52:54.167Z,2.80
2018-07-06T04:55:33.813Z,5.63
2018-07-06T04:58:13.479Z,2.60
2018-07-06T05:00:53.118Z,2.83
2018-07-06T05:03:32.765Z,2.60
2018-07-06T05:06:12.298Z,3.20
2018-07-06T05:08:51.942Z,3.30
2018-07-06T05:11:31.635Z,6.67
2018-07-06T05:14:11.278Z,5.43
2018-07-06T05:16:50.975Z,7.43
2018-07-06T05:19:30.711Z,4.13
2018-07-06T05:22:10.378Z,3.10
2018-07-06T05:24:50.074Z,5.93
2018-07-06T05:27:29.690Z,10.63
2018-07-06T05:30:09.307Z,3.77
2018-07-06T05:32:48.947Z,9.03
2018-07-06T05:35:28.668Z,6.20
2018-07-06T05:38:08.323Z,4.07
2018-07-06T05:40:47.981Z,8.30
2018-07-06T05:43:27.619Z,3.67
2018-07-06T05:46:07.162Z,4.33
2018-07-06T05:48:46.799Z,6.80
2018-07-06T05:51:26.447Z,4.30
2018-07-06T05:54:06.110Z,4.10
2018-07-06T05:56:45.835Z,6.37
2018-07-06T05:59:25.519Z,3.70
2018-07-06T06:02:05.243Z,4.37
2018-07-06T06:04:44.989Z,5.00
2018-07-06T06:07:20.407Z,9.33
2018-07-06T06:09:48.785Z,13.60
2018-07-06T06:12:17.428Z,3.83
2018-07-06T06:14:45.833Z,12.27
2018-07-06T06:17:14.219Z,5.60
2018-07-06T06:19:42.646Z,7.47
2018-07-06T06:22:11.027Z,4.13
2018-07-06T06:24:39.610Z,5.20
2018-07-06T06:27:08.014Z,3.97
2018-07-06T06:29:37.126Z,5.23
2018-07-06T06:32:06.286Z,4.17
2018-07-06T06:34:34.690Z,6.27
2018-07-06T06:37:03.436Z,4.60
2018-07-06T06:39:32.484Z,7.63
2018-07-06T06:42:01.118Z,4.10
2018-07-06T06:44:29.614Z,5.63
2018-07-06T06:46:58.995Z,7.13
2018-07-06T06:49:28.119Z,17.33
2018-07-06T06:51:56.535Z,13.27
2018-07-06T06:54:24.943Z,5.70
2018-07-06T06:56:53.847Z,8.43
2018-07-06T06:59:22.563Z,11.90
2018-07-06T07:01:50.962Z,16.67
2018-07-06T07:04:19.392Z,5.13
2018-07-06T07:06:47.802Z,6.93
2018-07-06T07:09:16.231Z,11.17
2018-07-06T07:11:44.606Z,13.33
2018-07-06T07:14:13.086Z,15.43
2018-07-06T07:16:41.406Z,5.83
2018-07-06T07:19:09.798Z,9.03
2018-07-06T07:21:38.170Z,15.30
2018-07-06T07:24:06.559Z,5.17
2018-07-06T07:26:34.970Z,23.50
2018-07-06T07:29:03.347Z,8.90
2018-07-06T07:31:31.750Z,4.27
2018-07-06T07:34:00.120Z,5.57
2018-07-06T07:36:28.519Z,7.63
2018-07-06T07:38:56.917Z,12.93
2018-07-06T07:41:25.320Z,7.33
2018-07-06T07:43:53.711Z,10.60
2018-07-06T07:46:22.121Z,16.53
2018-07-06T07:48:50.517Z,6.77
2018-07-06T07:52:12.795Z,8.57
2018-07-06T07:54:52.542Z,13.10
2018-07-06T07:57:21.098Z,5.30
2018-07-06T07:59:50.720Z,11.27
2018-07-06T08:02:19.152Z,5.60
2018-07-06T08:04:48.004Z,12.50
2018-07-06T08:07:16.412Z,11.47
2018-07-06T08:09:44.858Z,9.23
2018-07-06T08:12:13.258Z,13.77
2018-07-06T08:14:42.047Z,14.83
2018-07-06T08:17:10.456Z,15.93
2018-07-06T08:19:38.835Z,6.50
2018-07-06T08:22:07.283Z,7.50
2018-07-06T08:24:35.735Z,7.50
2018-07-06T08:27:04.139Z,11.53
2018-07-06T08:29:32.522Z,11.93
2018-07-06T08:32:00.928Z,6.30
2018-07-06T08:34:40.715Z,17.87
2018-07-06T08:37:37.851Z,8.80
2018-07-06T08:40:06.253Z,9.20
2018-07-06T08:42:35.578Z,10.33
2018-07-06T08:45:04.440Z,5.47
2018-07-06T08:47:32.847Z,8.90
2018-07-06T08:50:02.019Z,5.73
2018-07-06T08:52:30.627Z,8.93
2018-07-06T08:54:59.007Z,11.33
2018-07-06T08:57:28.606Z,9.77
2018-07-06T08:59:56.989Z,9.80
2018-07-06T09:02:25.778Z,14.50
2018-07-06T09:04:55.050Z,7.67
2018-07-06T09:07:23.698Z,15.20
2018-07-06T09:09:52.719Z,11.13
2018-07-06T09:12:21.114Z,11.13
2018-07-06T09:14:49.491Z,12.83
2018-07-06T09:17:18.817Z,7.03
2018-07-06T09:19:47.669Z,8.30
2018-07-06T09:22:16.356Z,7.70
2018-07-06T09:24:45.471Z,4.33
2018-07-06T09:27:14.007Z,5.07
2018-07-06T09:29:42.539Z,13.03
2018-07-06T09:32:11.000Z,9.03
2018-07-06T09:34:39.642Z,11.20
2018-07-06T09:37:08.254Z,6.70
2018-07-06T09:39:36.970Z,13.20
2018-07-06T09:42:05.376Z,13.73
2018-07-06T09:44:33.782Z,5.47
2018-07-06T09:47:02.174Z,17.20
2018-07-06T09:49:30.622Z,9.70
2018-07-06T09:51:59.002Z,7.80
2018-07-06T09:54:27.436Z,10.07
2018-07-06T09:56:55.802Z,5.73
2018-07-06T09:59:24.207Z,14.40
2018-07-06T10:01:52.696Z,7.93
2018-07-06T10:04:21.127Z,5.93
2018-07-06T10:06:49.558Z,13.70
2018-07-06T10:09:17.963Z,10.53
2018-07-06T10:11:46.339Z,13.00
2018-07-06T10:14:14.739Z,5.00
2018-07-06T10:16:43.107Z,7.47
2018-07-06T10:19:11.498Z,5.40
2018-07-06T10:21:39.870Z,19.30
2018-07-06T10:24:08.263Z,9.60
2018-07-06T10:26:36.646Z,9.00
2018-07-06T10:30:15.251Z,5.53
2018-07-06T10:32:43.635Z,22.63
2018-07-06T10:35:12.019Z,6.90
2018-07-06T10:37:40.393Z,9.90
2018-07-06T10:40:08.850Z,4.23
2018-07-06T10:42:37.226Z,9.43
2018-07-06T10:45:05.744Z,6.27
2018-07-06T10:47:34.115Z,6.30
2018-07-06T10:50:02.507Z,4.23
2018-07-06T10:52:30.876Z,7.17
2018-07-06T10:54:59.284Z,5.17
2018-07-06T10:57:27.654Z,11.73
2018-07-06T10:59:56.074Z,4.10
2018-07-06T11:02:24.447Z,4.80
2018-07-06T11:04:52.863Z,4.23
2018-07-06T11:07:21.254Z,6.47
2018-07-06T11:09:49.618Z,7.17
2018-07-06T11:12:18.015Z,6.10
2018-07-06T11:14:46.382Z,4.87
2018-07-06T11:17:14.776Z,6.23
2018-07-06T11:19:43.155Z,10.97
2018-07-06T11:22:11.558Z,11.60
2018-07-06T11:24:39.930Z,4.73
2018-07-06T11:27:08.338Z,4.20
2018-07-06T11:29:36.721Z,6.90
2018-07-06T11:32:05.202Z,6.43
2018-07-06T11:34:33.540Z,7.90
2018-07-06T11:37:01.934Z,7.60
2018-07-06T11:39:30.306Z,7.67
2018-07-06T11:41:58.715Z,9.93
2018-07-06T11:44:27.095Z,9.57
2018-07-06T11:46:55.499Z,4.67
2018-07-06T11:49:23.879Z,5.17
2018-07-06T11:51:52.298Z,4.93
2018-07-06T11:54:20.775Z,7.70
2018-07-06T11:56:49.147Z,7.47
2018-07-06T11:59:17.555Z,5.63
2018-07-06T12:01:45.962Z,10.17
2018-07-06T12:04:14.446Z,7.33
2018-07-06T12:06:42.770Z,3.53
2018-07-06T12:09:11.199Z,6.90
2018-07-06T12:11:39.574Z,4.90
2018-07-06T12:14:07.970Z,6.80
2018-07-06T12:16:36.356Z,6.40
2018-07-06T12:19:04.767Z,5.73
2018-07-06T12:21:33.139Z,8.70
2018-07-06T12:24:01.551Z,3.37
2018-07-06T12:26:29.935Z,6.17
2018-07-06T12:28:58.343Z,6.47
2018-07-06T12:31:26.743Z,4.63
2018-07-06T12:33:55.174Z,5.90
2018-07-06T12:36:23.604Z,4.40
2018-07-06T12:38:52.633Z,5.43
2018-07-06T12:41:21.113Z,16.03
2018-07-06T12:43:49.531Z,8.13
2018-07-06T12:46:17.911Z,6.43
2018-07-06T12:48:46.359Z,12.50
2018-07-06T12:51:14.746Z,5.43
2018-07-06T12:53:43.151Z,3.47
2018-07-06T12:56:11.531Z,6.63
2018-07-06T12:58:40.095Z,4.07
2018-07-06T13:01:08.338Z,5.60
2018-07-06T13:03:36.763Z,8.80
2018-07-06T13:06:05.155Z,7.03
2018-07-06T13:08:33.558Z,5.37
2018-07-06T13:11:01.988Z,10.33
2018-07-06T13:13:30.368Z,5.03
2018-07-06T13:15:58.778Z,15.87
2018-07-06T13:18:27.270Z,21.67
2018-07-06T13:20:55.668Z,2.93
2018-07-06T13:23:24.066Z,6.03
2018-07-06T13:25:52.505Z,12.30
2018-07-06T13:28:20.869Z,6.07
2018-07-06T13:30:49.263Z,5.90
2018-07-06T13:33:17.639Z,3.10
2018-07-06T13:35:46.038Z,6.93
2018-07-06T13:38:14.419Z,5.97
2018-07-06T13:40:42.829Z,10.53
2018-07-06T13:43:11.238Z,19.73
2018-07-06T13:45:39.654Z,12.17
2018-07-06T13:48:08.044Z,8.27
2018-07-06T13:50:36.445Z,14.13
2018-07-06T13:53:05.005Z,10.10
2018-07-06T13:55:33.422Z,18.57
2018-07-06T13:58:01.822Z,9.30
2018-07-06T14:00:30.242Z,5.30
2018-07-06T14:02:58.626Z,3.97
2018-07-06T14:05:27.023Z,10.37
2018-07-06T14:07:55.418Z,8.27
2018-07-06T14:10:23.906Z,11.33
2018-07-06T14:12:52.293Z,7.13
2018-07-06T14:15:20.748Z,13.83
2018-07-06T14:17:49.144Z,12.13
2018-07-06T14:20:17.573Z,21.10
2018-07-06T14:22:45.952Z,7.30
2018-07-06T14:25:14.346Z,9.10
2018-07-06T14:27:42.718Z,9.80
2018-07-06T14:30:11.126Z,10.23
2018-07-06T14:32:39.514Z,10.40
2018-07-06T14:35:08.083Z,17.43
2018-07-06T14:37:36.488Z,7.13
2018-07-06T14:40:04.884Z,6.50
2018-07-06T14:42:33.312Z,7.70
2018-07-06T14:45:01.702Z,3.70
2018-07-06T14:47:30.107Z,7.37
2018-07-06T14:49:58.486Z,15.63
2018-07-06T14:52:26.894Z,12.13
2018-07-06T14:54:55.265Z,5.07
2018-07-06T14:57:23.783Z,20.07
2018-07-06T14:59:52.218Z,5.87
2018-07-06T15:02:20.643Z,14.87
2018-07-06T15:04:49.043Z,19.77
2018-07-06T15:07:17.472Z,5.20
2018-07-06T15:09:45.880Z,7.40
2018-07-06T15:12:14.336Z,18.00
2018-07-06T15:14:43.147Z,16.70
2018-07-06T15:17:11.660Z,17.80
2018-07-06T15:19:40.071Z,17.83
2018-07-06T15:22:08.606Z,16.77
2018-07-06T15:24:36.999Z,10.73
2018-07-06T15:27:05.446Z,15.27
2018-07-06T15:29:33.838Z,10.03
2018-07-06T15:32:02.274Z,12.97
2018-07-06T15:34:30.652Z,8.83
2018-07-06T15:36:59.055Z,13.70
2018-07-06T15:39:27.428Z,8.50
2018-07-06T15:41:55.826Z,13.73
2018-07-06T15:44:24.206Z,9.13
2018-07-06T15:46:52.907Z,22.20
2018-07-06T15:49:21.567Z,10.07
2018-07-06T15:51:49.958Z,9.53
2018-07-06T15:54:18.362Z,11.10
2018-07-06T15:56:46.730Z,5.80
2018-07-06T15:59:15.172Z,14.23
2018-07-06T16:01:43.556Z,6.17
2018-07-06T16:04:11.954Z,18.10
2018-07-06T16:06:40.338Z,15.23
2018-07-06T16:09:08.767Z,8.97
2018-07-06T16:11:37.150Z,7.80
2018-07-06T16:14:05.571Z,16.50
2018-07-06T16:16:33.963Z,9.60
2018-07-06T16:19:02.372Z,8.57
2018-07-06T16:21:30.746Z,6.57
2018-07-06T16:23:59.410Z,8.80
2018-07-06T16:26:27.834Z,14.43
2018-07-06T16:28:56.283Z,13.37
2018-07-06T16:31:24.663Z,20.30
2018-07-06T16:33:53.078Z,14.13
2018-07-06T16:36:21.517Z,13.23
2018-07-06T16:38:49.907Z,15.73
2018-07-06T16:41:18.291Z,15.63
2018-07-06T16:43:46.695Z,14.30
2018-07-06T16:46:15.070Z,8.40
2018-07-06T16:48:43.486Z,32.47
2018-07-06T16:51:11.867Z,14.87
2018-07-06T16:53:40.576Z,12.33
2018-07-06T16:56:08.962Z,12.33
2018-07-06T16:58:37.450Z,17.33
2018-07-06T17:01:05.893Z,12.60
2018-07-06T17:03:34.327Z,7.93
2018-07-06T17:06:02.694Z,5.50
2018-07-06T17:08:31.123Z,8.57
2018-07-06T17:10:59.512Z,6.40
2018-07-06T17:13:27.879Z,13.30
2018-07-06T17:15:56.288Z,19.80
2018-07-06T17:18:24.697Z,14.27
2018-07-06T17:20:53.103Z,9.73
2018-07-06T17:23:21.488Z,16.37
2018-07-06T17:25:50.020Z,13.53
2018-07-06T17:28:18.399Z,5.73
2018-07-06T17:30:46.804Z,12.73
2018-07-06T17:33:15.183Z,12.43
2018-07-06T17:35:43.843Z,22.40
2018-07-06T17:38:12.223Z,10.60
2018-07-06T17:40:40.626Z,10.67
2018-07-06T17:43:09.002Z,9.33
2018-07-06T17:45:37.407Z,15.57
2018-07-06T17:48:06.171Z,8.80
2018-07-06T17:50:34.576Z,11.40
2018-07-06T17:53:03.070Z,13.60
2018-07-06T17:55:31.463Z,8.03
2018-07-06T17:57:59.909Z,14.00
2018-07-06T18:00:28.559Z,8.40
2018-07-06T18:02:57.026Z,16.73
2018-07-06T18:05:25.723Z,11.67
2018-07-06T18:07:54.146Z,9.27
2018-07-06T18:10:22.646Z,11.60
2018-07-06T18:12:51.023Z,11.63
2018-07-06T18:15:19.572Z,14.37
2018-07-06T18:17:47.961Z,17.63
2018-07-06T18:20:16.376Z,19.93
2018-07-06T18:22:45.103Z,12.57
2018-07-06T18:25:13.538Z,11.23
2018-07-06T18:27:42.088Z,20.50
2018-07-06T18:30:10.535Z,21.93
2018-07-06T18:32:38.923Z,15.13
2018-07-06T18:35:07.358Z,20.83
2018-07-06T18:37:36.505Z,13.63
2018-07-06T18:40:04.854Z,19.73
2018-07-06T18:42:33.463Z,11.30
2018-07-06T18:45:01.843Z,10.80
2018-07-06T18:47:30.290Z,13.20
2018-07-06T18:49:58.658Z,20.87
2018-07-06T18:52:27.078Z,22.40
2018-07-06T18:54:55.458Z,14.70
2018-07-06T18:57:23.854Z,11.73
2018-07-06T18:59:52.277Z,13.83
2018-07-06T19:02:20.678Z,13.60
2018-07-06T19:04:49.053Z,12.07
2018-07-06T19:07:17.479Z,12.93
2018-07-06T19:09:45.855Z,28.53
2018-07-06T19:12:14.313Z,26.87
2018-07-06T19:14:42.687Z,15.73
2018-07-06T19:17:11.087Z,11.73
2018-07-06T19:19:39.467Z,20.60
2018-07-06T19:22:07.854Z,6.70
2018-07-06T19:24:36.579Z,14.20
2018-07-06T19:27:04.979Z,21.87
2018-07-06T19:29:33.374Z,19.90
2018-07-06T19:32:01.772Z,16.03
2018-07-06T19:34:30.193Z,29.83
2018-07-06T19:36:58.640Z,14.50
2018-07-06T19:39:27.022Z,16.27
2018-07-06T19:41:55.437Z,20.13
2018-07-06T19:44:23.811Z,21.00
2018-07-06T19:46:52.951Z,14.87
2018-07-06T19:49:21.331Z,29.53
2018-07-06T19:51:49.866Z,22.60
2018-07-06T19:54:18.219Z,14.30
2018-07-06T19:56:46.606Z,17.37
2018-07-06T19:59:15.008Z,21.80
2018-07-06T20:01:43.428Z,19.60
2018-07-06T20:04:11.846Z,15.93
2018-07-06T20:06:40.235Z,15.47
2018-07-06T20:09:08.686Z,27.47
2018-07-06T20:11:37.113Z,24.43
2018-07-06T20:14:05.551Z,22.87
2018-07-06T20:16:33.943Z,29.60
2018-07-06T20:19:02.359Z,28.10
2018-07-06T20:21:30.746Z,16.73
2018-07-06T20:23:59.158Z,17.93
2018-07-06T20:26:27.545Z,13.13
2018-07-06T20:28:55.971Z,16.33
2018-07-06T20:31:24.355Z,27.17
2018-07-06T20:33:52.846Z,24.73
2018-07-06T20:36:21.235Z,20.03
2018-07-06T20:38:49.656Z,14.90
2018-07-06T20:41:18.107Z,14.93
2018-07-06T20:43:46.511Z,30.93
2018-07-06T20:46:14.888Z,17.83
2018-07-06T20:48:43.294Z,15.43
2018-07-06T20:51:11.678Z,12.37
2018-07-06T20:53:40.105Z,28.53
2018-07-06T20:56:08.498Z,24.73
2018-07-06T20:58:38.555Z,13.40
2018-07-06T21:01:06.939Z,9.60
2018-07-06T21:03:35.342Z,13.83
2018-07-06T21:06:03.723Z,17.30
2018-07-06T21:08:32.119Z,20.43
2018-07-06T21:11:00.518Z,19.93
2018-07-06T21:13:28.894Z,18.47
2018-07-06T21:15:57.314Z,17.73
2018-07-06T21:18:25.705Z,11.57
2018-07-06T21:20:54.151Z,20.77
2018-07-06T21:23:22.594Z,12.10
2018-07-06T21:25:50.998Z,14.87
2018-07-06T21:28:19.375Z,10.93
2018-07-06T21:30:47.779Z,10.60
2018-07-06T21:33:16.510Z,15.57
2018-07-06T21:35:44.966Z,17.73
2018-07-06T21:38:13.315Z,10.57
2018-07-06T21:40:41.720Z,19.30
2018-07-06T21:43:10.103Z,18.17
2018-07-06T21:45:38.499Z,21.33
2018-07-06T21:48:06.887Z,31.17
2018-07-06T21:50:35.314Z,20.73
2018-07-06T21:53:03.686Z,16.67
2018-07-06T21:55:32.253Z,14.03
2018-07-06T21:58:00.498Z,15.50
2018-07-06T22:00:37.931Z,23.27
2018-07-06T22:03:06.891Z,15.77
2018-07-06T22:05:35.295Z,13.50
2018-07-06T22:08:04.803Z,14.23
2018-07-06T22:10:33.873Z,24.87
2018-07-06T22:13:02.275Z,13.90
2018-07-06T22:15:46.920Z,14.67
2018-07-06T22:18:17.671Z,15.53
2018-07-06T22:20:46.949Z,21.40
2018-07-06T22:23:15.806Z,29.97
2018-07-06T22:25:44.426Z,35.27
2018-07-06T22:28:12.843Z,21.20
2018-07-06T22:30:41.288Z,26.83
2018-07-06T22:33:09.687Z,12.57
2018-07-06T22:35:38.095Z,19.13
2018-07-06T22:38:06.503Z,25.93
2018-07-06T22:40:34.874Z,12.70
2018-07-06T22:43:03.282Z,15.83
2018-07-06T22:45:31.686Z,16.00
2018-07-06T22:48:00.080Z,14.07
2018-07-06T22:50:28.490Z,26.20
2018-07-06T22:52:56.871Z,19.70
2018-07-06T22:55:25.279Z,15.90
2018-07-06T22:57:53.650Z,43.40
2018-07-06T23:00:22.051Z,30.47
2018-07-06T23:02:50.432Z,21.73
2018-07-06T23:05:20.046Z,15.90
2018-07-06T23:07:48.443Z,11.17
2018-07-06T23:10:16.842Z,15.60
2018-07-06T23:12:45.246Z,17.70
2018-07-06T23:15:13.647Z,17.13
2018-07-06T23:17:42.026Z,19.87
2018-07-06T23:20:10.427Z,14.70
2018-07-06T23:23:07.867Z,14.37
2018-07-06T23:25:37.658Z,18.90
2018-07-06T23:28:06.366Z,20.67
2018-07-06T23:30:34.794Z,24.10
2018-07-06T23:33:04.147Z,17.93
2018-07-06T23:35:32.775Z,10.50
2018-07-06T23:38:01.150Z,19.27
2018-07-06T23:40:29.539Z,16.37
2018-07-06T23:42:58.101Z,17.73
2018-07-06T23:45:26.510Z,14.20
2018-07-06T23:47:54.903Z,8.27
2018-07-06T23:50:23.622Z,22.40
2018-07-06T23:52:52.022Z,22.07
2018-07-06T23:55:20.461Z,18.23
2018-07-06T23:57:49.137Z,16.20
